createdAt,value
2018-03-22T00:00:17.541Z,99026.14
2018-03-22T00:02:45.880Z,99026.36
2018-03-22T00:05:14.809Z,99020.16
2018-03-22T00:07:43.518Z,99016.97
2018-03-22T00:10:12.608Z,99010.84
2018-03-22T00:12:41.737Z,99008.19
2018-03-22T00:15:10.064Z,99016.36
2018-03-22T00:17:38.380Z,99009.89
2018-03-22T00:20:06.764Z,99007.95
2018-03-22T00:22:39.002Z,99002.30
2018-03-22T00:25:07.358Z,99004.42
2018-03-22T00:27:35.689Z,99003.50
2018-03-22T00:30:04.033Z,99003.02
2018-03-22T00:32:33.120Z,98998.78
2018-03-22T00:35:01.482Z,98997.52
2018-03-22T00:37:29.807Z,98999.30
2018-03-22T00:39:58.516Z,98996.30
2018-03-22T00:42:26.832Z,98993.06
2018-03-22T00:44:55.152Z,98983.05
2018-03-22T00:47:23.503Z,98977.66
2018-03-22T00:49:52.868Z,98976.90
2018-03-22T00:52:21.583Z,98974.77
2018-03-22T00:54:49.896Z,98967.14
2018-03-22T00:57:18.209Z,98964.45
2018-03-22T00:59:46.574Z,98958.34
2018-03-22T01:02:15.412Z,98955.97
2018-03-22T01:04:44.484Z,98949.19
2018-03-22T01:07:12.903Z,98945.94
2018-03-22T01:09:41.878Z,98944.57
2018-03-22T01:12:10.970Z,98946.39
2018-03-22T01:14:39.319Z,98936.47
2018-03-22T01:17:08.259Z,98935.31
2018-03-22T01:19:36.576Z,98929.91
2018-03-22T01:22:04.953Z,98920.77
2018-03-22T01:24:33.348Z,98923.83
2018-03-22T01:27:01.664Z,98920.84
2018-03-22T01:29:31.269Z,98916.53
2018-03-22T01:31:59.604Z,98912.33
2018-03-22T01:34:27.928Z,98914.73
2018-03-22T01:36:57.078Z,98912.02
2018-03-22T01:39:25.387Z,98918.63
2018-03-22T01:41:54.275Z,98915.36
2018-03-22T01:44:23.234Z,98918.74
2018-03-22T01:46:51.552Z,98914.66
2018-03-22T01:49:19.875Z,98911.37
2018-03-22T01:51:48.226Z,98917.41
2018-03-22T01:54:16.544Z,98912.27
2018-03-22T01:56:44.859Z,98908.50
2018-03-22T01:59:13.907Z,98904.37
2018-03-22T02:01:42.713Z,98903.05
2018-03-22T02:04:11.059Z,98901.49
2018-03-22T02:06:40.496Z,98903.53
2018-03-22T02:09:10.211Z,98891.36
2018-03-22T02:11:38.600Z,98894.14
2018-03-22T02:14:06.911Z,98890.77
2018-03-22T02:16:35.252Z,98894.32
2018-03-22T02:19:03.573Z,98895.29
2018-03-22T02:21:33.122Z,98894.18
2018-03-22T02:24:01.477Z,98884.95
2018-03-22T02:26:29.834Z,98884.20
2018-03-22T02:28:58.205Z,98881.50
2018-03-22T02:31:26.491Z,98878.91
2018-03-22T02:33:54.837Z,98875.47
2018-03-22T02:36:23.842Z,98884.44
2018-03-22T02:38:52.384Z,98884.69
2018-03-22T02:41:20.705Z,98882.25
2018-03-22T02:43:49.204Z,98888.52
2018-03-22T02:46:17.786Z,98874.80
2018-03-22T02:48:46.362Z,98870.22
2018-03-22T02:51:15.037Z,98868.14
2018-03-22T02:53:43.364Z,98858.20
2018-03-22T02:56:11.684Z,98859.09
2018-03-22T02:58:40.128Z,98857.70
2018-03-22T03:01:08.437Z,98853.31
2018-03-22T03:03:36.882Z,98855.64
2018-03-22T03:06:05.204Z,98845.03
2018-03-22T03:08:33.524Z,98836.91
2018-03-22T03:11:01.864Z,98835.14
2018-03-22T03:13:30.188Z,98829.35
2018-03-22T03:15:58.760Z,98813.88
2018-03-22T03:18:27.120Z,98818.64
2018-03-22T03:20:55.464Z,98813.64
2018-03-22T03:23:23.787Z,98813.44
2018-03-22T03:25:52.164Z,98815.12
2018-03-22T03:28:20.580Z,98822.17
2018-03-22T03:30:48.902Z,98822.48
2018-03-22T03:33:17.692Z,98818.81
2018-03-22T03:35:46.778Z,98808.05
2018-03-22T03:38:16.143Z,98809.55
2018-03-22T03:40:44.495Z,98801.83
2018-03-22T03:43:12.816Z,98807.64
2018-03-22T03:45:41.276Z,98800.87
2018-03-22T03:48:10.237Z,98794.91
2018-03-22T03:50:38.590Z,98792.81
2018-03-22T03:53:06.905Z,98786.60
2018-03-22T03:55:35.288Z,98785.16
2018-03-22T03:58:04.008Z,98792.37
2018-03-22T04:00:32.333Z,98795.59
2018-03-22T04:03:00.692Z,98797.05
2018-03-22T04:05:29.771Z,98792.94
2018-03-22T04:07:58.104Z,98785.64
2018-03-22T04:10:26.690Z,98780.45
2018-03-22T04:12:54.996Z,98778.75
2018-03-22T04:15:23.340Z,98766.04
2018-03-22T04:17:52.137Z,98771.70
2018-03-22T04:20:20.476Z,98777.59
2018-03-22T04:22:49.493Z,98777.28
2018-03-22T04:25:17.803Z,98776.13
2018-03-22T04:27:46.990Z,98774.36
2018-03-22T04:30:15.340Z,98771.82
2018-03-22T04:32:43.661Z,98767.88
2018-03-22T04:35:12.016Z,98768.89
2018-03-22T04:37:41.104Z,98762.58
2018-03-22T04:40:10.685Z,98762.47
2018-03-22T04:42:39.765Z,98764.63
2018-03-22T04:45:08.321Z,98762.52
2018-03-22T04:47:36.634Z,98755.98
2018-03-22T04:50:06.352Z,98747.19
2018-03-22T04:52:34.736Z,98746.88
2018-03-22T04:55:03.238Z,98738.86
2018-03-22T04:57:31.544Z,98737.30
2018-03-22T04:59:59.925Z,98734.92
2018-03-22T05:02:28.304Z,98731.53
2018-03-22T05:04:56.613Z,98732.19
2018-03-22T05:07:24.948Z,98733.23
2018-03-22T05:09:53.314Z,98730.40
2018-03-22T05:12:22.140Z,98734.23
2018-03-22T05:14:50.857Z,98732.70
2018-03-22T05:17:19.696Z,98722.27
2018-03-22T05:19:48.017Z,98714.14
2018-03-22T05:22:16.394Z,98713.66
2018-03-22T05:24:44.733Z,98703.72
2018-03-22T05:27:13.056Z,98705.45
2018-03-22T05:29:41.746Z,98707.30
2018-03-22T05:32:10.122Z,98704.77
2018-03-22T05:34:38.495Z,98702.44
2018-03-22T05:37:07.082Z,98705.16
2018-03-22T05:39:36.160Z,98702.38
2018-03-22T05:42:04.480Z,98701.68
2018-03-22T05:44:32.852Z,98704.63
2018-03-22T05:47:05.441Z,98701.41
2018-03-22T05:49:34.017Z,98702.30
2018-03-22T05:52:02.359Z,98701.78
2018-03-22T05:54:30.689Z,98694.99
2018-03-22T05:56:59.064Z,98693.88
2018-03-22T05:59:27.381Z,98687.33
2018-03-22T06:01:56.663Z,98688.45
2018-03-22T06:04:25.038Z,98692.65
2018-03-22T06:06:53.364Z,98693.60
2018-03-22T06:09:21.680Z,98687.82
2018-03-22T06:11:50.060Z,98682.27
2018-03-22T06:14:18.383Z,98683.84
2018-03-22T06:16:46.839Z,98686.21
2018-03-22T06:19:15.160Z,98684.33
2018-03-22T06:21:44.184Z,98684.42
2018-03-22T06:24:12.913Z,98684.27
2018-03-22T06:26:41.805Z,98682.27
2018-03-22T06:29:10.203Z,98671.43
2018-03-22T06:31:38.548Z,98664.94
2018-03-22T06:34:07.128Z,98665.92
2018-03-22T06:36:35.923Z,98659.11
2018-03-22T06:39:05.151Z,98661.02
2018-03-22T06:41:34.096Z,98655.08
2018-03-22T06:44:03.084Z,98664.08
2018-03-22T06:46:31.413Z,98661.10
2018-03-22T06:48:59.773Z,98657.17
2018-03-22T06:51:28.793Z,98658.72
2018-03-22T06:53:57.113Z,98654.74
2018-03-22T06:56:25.460Z,98658.27
2018-03-22T06:58:53.777Z,98643.05
2018-03-22T07:01:22.116Z,98652.34
2018-03-22T07:03:50.488Z,98646.53
2018-03-22T07:06:18.804Z,98646.44
2018-03-22T07:08:47.117Z,98644.68
2018-03-22T07:11:16.001Z,98647.55
2018-03-22T07:13:46.086Z,98642.92
2018-03-22T07:16:14.392Z,98639.86
2018-03-22T07:18:42.741Z,98636.36
2018-03-22T07:21:11.049Z,98637.75
2018-03-22T07:23:39.359Z,98639.20
2018-03-22T07:26:08.376Z,98637.95
2018-03-22T07:28:36.705Z,98641.79
2018-03-22T07:31:05.793Z,98640.30
2018-03-22T07:33:34.132Z,98639.21
2018-03-22T07:36:02.436Z,98631.66
2018-03-22T07:38:30.804Z,98628.42
2018-03-22T07:40:59.108Z,98624.19
2018-03-22T07:43:32.821Z,98625.61
2018-03-22T07:46:01.146Z,98627.56
2018-03-22T07:48:29.487Z,98626.30
2018-03-22T07:50:58.579Z,98619.06
2018-03-22T07:53:27.652Z,98622.78
2018-03-22T07:55:56.160Z,98613.73
2018-03-22T07:58:25.236Z,98613.32
2018-03-22T08:00:53.583Z,98611.86
2018-03-22T08:03:21.892Z,98611.98
2018-03-22T08:05:50.213Z,98607.20
2018-03-22T08:08:18.694Z,98607.78
2018-03-22T08:10:47.012Z,98599.57
2018-03-22T08:13:15.316Z,98593.44
2018-03-22T08:15:43.694Z,98592.08
2018-03-22T08:18:12.032Z,98590.20
2018-03-22T08:20:40.345Z,98594.95
2018-03-22T08:23:08.705Z,98589.70
2018-03-22T08:25:37.050Z,98592.14
2018-03-22T08:28:05.360Z,98582.17
2018-03-22T08:30:33.703Z,98578.63
2018-03-22T08:33:06.849Z,98578.20
2018-03-22T08:35:35.196Z,98577.72
2018-03-22T08:38:03.529Z,98582.23
2018-03-22T08:40:31.841Z,98578.89
2018-03-22T08:43:00.190Z,98581.08
2018-03-22T08:45:29.261Z,98568.55
2018-03-22T08:47:58.379Z,98567.64
2018-03-22T08:50:26.724Z,98564.42
2018-03-22T08:52:55.065Z,98561.17
2018-03-22T08:55:23.975Z,98550.75
2018-03-22T08:57:52.277Z,98539.75
2018-03-22T09:00:20.639Z,98555.52
2018-03-22T09:02:49.714Z,98548.45
2018-03-22T09:05:18.029Z,98547.34
2018-03-22T09:07:46.437Z,98553.84
2018-03-22T09:10:15.004Z,98554.64
2018-03-22T09:12:43.356Z,98552.77
2018-03-22T09:15:11.668Z,98556.31
2018-03-22T09:17:40.084Z,98543.78
2018-03-22T09:20:09.840Z,98547.55
2018-03-22T09:22:38.889Z,98539.22
2018-03-22T09:25:07.248Z,98536.21
2018-03-22T09:27:35.560Z,98525.80
2018-03-22T09:30:03.885Z,98520.23
2018-03-22T09:32:32.807Z,98510.02
2018-03-22T09:35:01.144Z,98509.42
2018-03-22T09:37:30.365Z,98506.09
2018-03-22T09:39:58.686Z,98498.64
2018-03-22T09:42:27.232Z,98495.44
2018-03-22T09:44:55.493Z,98486.78
2018-03-22T09:47:23.843Z,98481.67
2018-03-22T09:49:52.285Z,98476.69
2018-03-22T09:52:20.603Z,98477.84
2018-03-22T09:54:48.940Z,98480.12
2018-03-22T09:57:17.252Z,98481.77
2018-03-22T09:59:45.592Z,98471.76
2018-03-22T10:02:13.896Z,98470.22
2018-03-22T10:04:42.804Z,98465.39
2018-03-22T10:07:11.154Z,98460.73
2018-03-22T10:09:41.008Z,98458.28
2018-03-22T10:12:09.201Z,98454.94
2018-03-22T10:14:38.404Z,98459.65
2018-03-22T10:17:06.725Z,98462.48
2018-03-22T10:19:34.992Z,98460.45
2018-03-22T10:22:03.305Z,98454.02
2018-03-22T10:24:31.476Z,98440.66
2018-03-22T10:26:59.816Z,98429.81
2018-03-22T10:29:28.120Z,98422.17
2018-03-22T10:31:56.430Z,98425.81
2018-03-22T10:34:25.572Z,98417.16
2018-03-22T10:36:53.884Z,98409.70
2018-03-22T10:39:22.985Z,98410.23
2018-03-22T10:41:51.878Z,98409.52
2018-03-22T10:44:20.188Z,98409.66
2018-03-22T10:46:48.488Z,98398.79
2018-03-22T10:49:16.843Z,98403.85
2018-03-22T10:51:45.172Z,98400.46
2018-03-22T10:54:13.483Z,98403.68
2018-03-22T10:56:41.817Z,98390.78
2018-03-22T10:59:10.136Z,98385.51
2018-03-22T11:01:44.693Z,98375.88
2018-03-22T11:04:13.000Z,98374.73
2018-03-22T11:06:41.346Z,98372.06
2018-03-22T11:09:09.657Z,98360.62
2018-03-22T11:11:38.494Z,98353.56
2018-03-22T11:14:06.856Z,98351.14
2018-03-22T11:16:35.209Z,98341.56
2018-03-22T11:19:03.517Z,98332.77
2018-03-22T11:21:31.834Z,98328.94
2018-03-22T11:24:00.187Z,98325.20
2018-03-22T11:26:28.734Z,98323.27
2018-03-22T11:28:57.804Z,98318.14
2018-03-22T11:31:26.122Z,98314.17
2018-03-22T11:33:54.464Z,98313.57
2018-03-22T11:36:22.776Z,98296.95
2018-03-22T11:38:51.119Z,98299.48
2018-03-22T11:41:19.478Z,98287.86
2018-03-22T11:43:47.793Z,98294.45
2018-03-22T11:46:16.163Z,98291.63
2018-03-22T11:48:46.714Z,98292.28
2018-03-22T11:51:15.180Z,98287.91
2018-03-22T11:53:43.556Z,98285.67
2018-03-22T11:56:11.856Z,98287.81
2018-03-22T11:58:40.168Z,98294.23
2018-03-22T12:01:08.529Z,98287.20
2018-03-22T12:03:37.609Z,98285.75
2018-03-22T12:06:06.696Z,98281.98
2018-03-22T12:08:35.784Z,98283.47
2018-03-22T12:11:04.128Z,98279.87
2018-03-22T12:13:32.637Z,98283.88
2018-03-22T12:16:00.949Z,98290.81
2018-03-22T12:18:29.396Z,98283.77
2018-03-22T12:20:57.766Z,98278.90
2018-03-22T12:23:26.078Z,98286.02
2018-03-22T12:25:54.385Z,98281.74
2018-03-22T12:28:23.836Z,98275.56
2018-03-22T12:30:52.287Z,98274.94
2018-03-22T12:33:20.599Z,98263.03
2018-03-22T12:35:49.740Z,98256.78
2018-03-22T12:38:18.048Z,98261.91
2018-03-22T12:40:46.933Z,98258.38
2018-03-22T12:43:15.464Z,98253.61
2018-03-22T12:45:43.777Z,98249.13
2018-03-22T12:48:12.094Z,98250.05
2018-03-22T12:50:40.474Z,98244.16
2018-03-22T12:53:08.781Z,98247.95
2018-03-22T12:55:37.096Z,98247.23
2018-03-22T12:58:05.458Z,98247.95
2018-03-22T13:00:34.788Z,98243.29
2018-03-22T13:03:03.144Z,98239.59
2018-03-22T13:05:31.521Z,98241.76
2018-03-22T13:07:59.868Z,98244.39
2018-03-22T13:10:28.268Z,98230.18
2018-03-22T13:12:57.260Z,98227.78
2018-03-22T13:15:26.224Z,98232.61
2018-03-22T13:17:54.636Z,98225.65
2018-03-22T13:20:23.068Z,98222.59
2018-03-22T13:22:51.436Z,98215.41
2018-03-22T13:25:19.757Z,98217.03
2018-03-22T13:27:48.064Z,98214.44
2018-03-22T13:30:17.756Z,98207.05
2018-03-22T13:32:46.072Z,98194.20
2018-03-22T13:35:14.991Z,98196.15
2018-03-22T13:37:43.373Z,98190.58
2018-03-22T13:40:11.816Z,98181.84
2018-03-22T13:42:40.137Z,98182.92
2018-03-22T13:45:09.257Z,98185.34
2018-03-22T13:47:42.096Z,98183.30
2018-03-22T13:50:10.433Z,98183.27
2018-03-22T13:52:38.745Z,98181.28
2018-03-22T13:55:07.088Z,98179.27
2018-03-22T13:57:35.460Z,98177.28
2018-03-22T14:00:03.773Z,98164.59
2018-03-22T14:02:32.244Z,98161.16
2018-03-22T14:05:00.906Z,98158.77
2018-03-22T14:07:29.216Z,98158.83
2018-03-22T14:10:00.573Z,98150.81
2018-03-22T14:12:28.909Z,98139.50
2018-03-22T14:14:57.276Z,98131.98
2018-03-22T14:17:25.640Z,98130.97
2018-03-22T14:19:53.952Z,98131.13
2018-03-22T14:22:22.273Z,98128.87
2018-03-22T14:24:50.640Z,98124.30
2018-03-22T14:27:18.948Z,98123.94
2018-03-22T14:29:47.259Z,98125.82
2018-03-22T14:32:16.043Z,98116.20
2018-03-22T14:34:44.352Z,98120.64
2018-03-22T14:37:12.664Z,98106.45
2018-03-22T14:39:41.070Z,98108.89
2018-03-22T14:42:09.669Z,98103.77
2018-03-22T14:44:38.896Z,98102.64
2018-03-22T14:47:07.253Z,98105.41
2018-03-22T14:49:35.569Z,98102.58
2018-03-22T14:52:04.104Z,98091.27
2018-03-22T14:54:32.473Z,98093.44
2018-03-22T14:57:00.781Z,98089.05
2018-03-22T14:59:29.264Z,98088.25
2018-03-22T15:01:57.627Z,98085.03
2018-03-22T15:04:25.937Z,98075.47
2018-03-22T15:06:54.264Z,98072.35
2018-03-22T15:09:23.420Z,98066.94
2018-03-22T15:11:51.500Z,98065.45
2018-03-22T15:14:19.844Z,98056.83
2018-03-22T15:16:48.333Z,98058.02
2018-03-22T15:19:16.620Z,98057.78
2018-03-22T15:21:45.088Z,98054.23
2018-03-22T15:24:13.448Z,98056.75
2018-03-22T15:26:41.776Z,98042.36
2018-03-22T15:29:10.672Z,98049.82
2018-03-22T15:31:39.025Z,98047.69
2018-03-22T15:34:07.644Z,98046.55
2018-03-22T15:36:35.988Z,98044.38
2018-03-22T15:39:04.447Z,98046.31
2018-03-22T15:41:33.436Z,98045.97
2018-03-22T15:44:01.744Z,98041.75
2018-03-22T15:46:30.568Z,98041.01
2018-03-22T15:48:58.876Z,98044.06
2018-03-22T15:51:27.192Z,98045.66
2018-03-22T15:53:56.352Z,98036.73
2018-03-22T15:56:24.668Z,98036.92
2018-03-22T15:58:53.104Z,98029.94
2018-03-22T16:01:21.822Z,98025.45
2018-03-22T16:03:50.153Z,98021.14
2018-03-22T16:06:18.532Z,98032.22
2018-03-22T16:08:46.852Z,98025.14
2018-03-22T16:11:15.164Z,98022.49
2018-03-22T16:13:43.235Z,98024.70
2018-03-22T16:16:12.490Z,98019.76
2018-03-22T16:18:40.814Z,98019.87
2018-03-22T16:21:09.132Z,98019.63
2018-03-22T16:23:38.177Z,98030.14
2018-03-22T16:26:06.536Z,98027.64
2018-03-22T16:28:34.852Z,98026.19
2018-03-22T16:31:03.221Z,98029.08
2018-03-22T16:33:31.603Z,98029.08
2018-03-22T16:35:59.927Z,98030.34
2018-03-22T16:38:28.385Z,98034.31
2018-03-22T16:40:56.772Z,98034.17
2018-03-22T16:43:25.079Z,98037.50
2018-03-22T16:45:53.448Z,98045.88
2018-03-22T16:48:21.763Z,98037.67
2018-03-22T16:50:50.844Z,98045.02
2018-03-22T16:53:19.657Z,98044.78
2018-03-22T16:55:48.271Z,98045.12
2018-03-22T16:58:16.650Z,98042.70
2018-03-22T17:00:44.965Z,98050.80
2018-03-22T17:03:13.337Z,98045.59
2018-03-22T17:05:41.648Z,98043.92
2018-03-22T17:08:09.965Z,98052.56
2018-03-22T17:10:39.078Z,98054.22
2018-03-22T17:13:07.391Z,98052.38
2018-03-22T17:15:36.476Z,98055.23
2018-03-22T17:18:05.908Z,98051.59
2018-03-22T17:20:34.228Z,98043.94
2018-03-22T17:23:02.553Z,98045.45
2018-03-22T17:25:30.929Z,98037.80
2018-03-22T17:27:59.245Z,98032.11
2018-03-22T17:30:27.556Z,98031.70
2018-03-22T17:32:55.908Z,98028.43
2018-03-22T17:35:24.240Z,98024.31
2018-03-22T17:37:54.730Z,98027.09
2018-03-22T17:40:23.087Z,98024.91
2018-03-22T17:42:51.407Z,98019.16
2018-03-22T17:45:19.779Z,98013.23
2018-03-22T17:47:48.101Z,98013.69
2018-03-22T17:50:16.427Z,98015.80
2018-03-22T17:52:45.249Z,98010.20
2018-03-22T17:55:13.608Z,98010.52
2018-03-22T17:57:41.981Z,98011.70
2018-03-22T18:00:10.408Z,98019.22
2018-03-22T18:02:38.729Z,98017.27
2018-03-22T18:05:07.813Z,98015.88
2018-03-22T18:07:36.329Z,98019.19
2018-03-22T18:10:04.654Z,98017.00
2018-03-22T18:12:33.863Z,98027.38
2018-03-22T18:15:02.888Z,98024.07
2018-03-22T18:17:33.737Z,98020.57
2018-03-22T18:20:02.667Z,98026.83
2018-03-22T18:22:31.006Z,98028.86
2018-03-22T18:25:00.046Z,98015.39
2018-03-22T18:27:28.372Z,98015.16
2018-03-22T18:30:00.747Z,98010.66
2018-03-22T18:32:29.805Z,98014.50
2018-03-22T18:34:59.116Z,98012.45
2018-03-22T18:37:28.828Z,98010.42
2018-03-22T18:39:58.715Z,98006.52
2018-03-22T18:42:27.109Z,98000.12
2018-03-22T18:44:58.692Z,97998.53
2018-03-22T18:47:28.606Z,97993.10
2018-03-22T18:49:58.391Z,97996.41
2018-03-22T18:52:26.708Z,97995.89
2018-03-22T18:54:55.723Z,98000.45
2018-03-22T18:57:24.384Z,98006.27
2018-03-22T18:59:53.200Z,98003.69
2018-03-22T19:02:21.693Z,98004.86
2018-03-22T19:04:49.853Z,98005.08
2018-03-22T19:07:18.798Z,98008.78
2018-03-22T19:09:47.901Z,98003.57
2018-03-22T19:12:16.352Z,98007.06
2018-03-22T19:14:45.226Z,98004.36
2018-03-22T19:17:13.543Z,98006.00
2018-03-22T19:19:42.644Z,98011.23
2018-03-22T19:22:11.768Z,98007.02
2018-03-22T19:24:40.789Z,98005.69
2018-03-22T19:27:09.956Z,98005.03
2018-03-22T19:29:38.733Z,98001.73
2018-03-22T19:32:08.784Z,98000.26
2018-03-22T19:34:38.048Z,98002.05
2018-03-22T19:37:07.963Z,98000.78
2018-03-22T19:39:36.993Z,97994.77
2018-03-22T19:42:05.312Z,97998.36
2018-03-22T19:44:33.750Z,97994.84
2018-03-22T19:47:03.165Z,97994.59
2018-03-22T19:49:31.570Z,97993.08
2018-03-22T19:52:00.037Z,97996.70
2018-03-22T19:54:29.118Z,97993.12
2018-03-22T19:56:58.267Z,97993.71
2018-03-22T19:59:28.296Z,97998.35
2018-03-22T20:01:57.304Z,97992.05
2018-03-22T20:04:27.153Z,97985.33
2018-03-22T20:06:57.148Z,97985.72
2018-03-22T20:09:29.484Z,97989.42
2018-03-22T20:11:58.573Z,97987.42
2018-03-22T20:14:26.889Z,97986.09
2018-03-22T20:16:56.048Z,97980.87
2018-03-22T20:19:26.690Z,97986.98
2018-03-22T20:21:57.516Z,97980.08
2018-03-22T20:24:26.455Z,97979.53
2018-03-22T20:26:55.559Z,97981.09
2018-03-22T20:29:27.847Z,97971.84
2018-03-22T20:31:57.828Z,97972.66
2018-03-22T20:34:27.075Z,97966.66
2018-03-22T20:36:55.432Z,97968.38
2018-03-22T20:39:23.741Z,97962.18
2018-03-22T20:41:52.752Z,97962.42
2018-03-22T20:44:21.698Z,97967.95
2018-03-22T20:46:52.461Z,97966.66
2018-03-22T20:49:20.764Z,97968.38
2018-03-22T20:51:49.888Z,97967.72
2018-03-22T20:54:19.032Z,97966.45
2018-03-22T20:56:48.856Z,97962.92
2018-03-22T20:59:17.740Z,97965.75
2018-03-22T21:01:46.164Z,97965.72
2018-03-22T21:04:15.384Z,97963.40
2018-03-22T21:06:43.868Z,97959.94
2018-03-22T21:09:12.192Z,97959.16
2018-03-22T21:11:40.505Z,97961.52
2018-03-22T21:14:10.988Z,97948.51
2018-03-22T21:16:39.937Z,97944.28
2018-03-22T21:19:08.248Z,97943.22
2018-03-22T21:21:38.749Z,97945.42
2018-03-22T21:24:07.532Z,97935.28
2018-03-22T21:26:35.848Z,97935.28
2018-03-22T21:29:04.732Z,97940.97
2018-03-22T21:31:33.169Z,97936.84
2018-03-22T21:34:05.249Z,97937.75
2018-03-22T21:36:33.649Z,97930.76
2018-03-22T21:39:02.609Z,97931.84
2018-03-22T21:41:33.401Z,97925.25
2018-03-22T21:44:16.392Z,97923.80
2018-03-22T21:46:45.663Z,97921.88
2018-03-22T21:49:14.015Z,97920.20
2018-03-22T21:51:42.340Z,97921.53
2018-03-22T21:54:12.101Z,97916.70
2018-03-22T21:56:41.093Z,97921.37
2018-03-22T21:59:10.184Z,97914.78
2018-03-22T22:01:39.265Z,97916.66
2018-03-22T22:04:15.381Z,97912.41
2018-03-22T22:06:43.736Z,97908.08
2018-03-22T22:09:12.103Z,97905.60
2018-03-22T22:11:41.256Z,97905.94
2018-03-22T22:14:09.876Z,97903.52
2018-03-22T22:16:38.976Z,97901.86
2018-03-22T22:19:08.080Z,97900.59
2018-03-22T22:21:37.181Z,97897.89
2018-03-22T22:24:05.500Z,97894.66
2018-03-22T22:26:33.869Z,97890.16
2018-03-22T22:29:03.362Z,97888.77
2018-03-22T22:31:31.668Z,97887.77
2018-03-22T22:34:00.082Z,97886.62
2018-03-22T22:36:29.868Z,97882.08
2018-03-22T22:38:58.176Z,97879.17
2018-03-22T22:41:31.329Z,97876.09
2018-03-22T22:44:00.473Z,97866.17
2018-03-22T22:46:31.160Z,97875.67
2018-03-22T22:48:59.569Z,97876.33
2018-03-22T22:51:27.989Z,97866.13
2018-03-22T22:53:56.333Z,97860.00
2018-03-22T22:56:25.205Z,97861.25
2018-03-22T22:58:53.552Z,97857.19
2018-03-22T23:01:22.413Z,97851.67
2018-03-22T23:03:50.957Z,97847.72
2018-03-22T23:06:19.335Z,97843.55
2018-03-22T23:08:47.647Z,97844.66
2018-03-22T23:11:15.980Z,97846.70
2018-03-22T23:13:44.668Z,97840.80
2018-03-22T23:16:17.131Z,97833.55
2018-03-22T23:18:45.511Z,97839.51
2018-03-22T23:21:13.833Z,97837.31
2018-03-22T23:23:42.805Z,97829.97
2018-03-22T23:26:11.384Z,97831.80
2018-03-22T23:28:39.705Z,97826.41
2018-03-22T23:31:08.456Z,97829.02
2018-03-22T23:33:37.563Z,97828.73
2018-03-22T23:36:07.361Z,97833.23
2018-03-22T23:38:36.280Z,97834.48
2018-03-22T23:41:04.616Z,97831.70
2018-03-22T23:43:33.763Z,97832.06
2018-03-22T23:46:02.180Z,97822.70
2018-03-22T23:48:31.141Z,97824.67
2018-03-22T23:50:59.736Z,97818.58
2018-03-22T23:53:28.598Z,97827.52
2018-03-22T23:55:56.980Z,97823.94
2018-03-22T23:58:25.306Z,97823.58
